createdAt,value
2022-08-18T00:01:05.457Z,4.45
2022-08-18T00:03:55.753Z,4.60
2022-08-18T00:06:19.938Z,4.40
2022-08-18T00:08:47.028Z,4.85
2022-08-18T00:11:13.697Z,4.60
2022-08-18T00:13:40.272Z,4.63
2022-08-18T00:16:07.106Z,4.53
2022-08-18T00:18:33.660Z,4.40
2022-08-18T00:21:02.240Z,4.38
2022-08-18T00:23:32.474Z,4.00
2022-08-18T00:26:00.229Z,4.25
2022-08-18T00:28:26.819Z,4.88
2022-08-18T00:30:53.926Z,4.65
2022-08-18T00:33:21.055Z,4.45
2022-08-18T00:35:47.632Z,4.60
2022-08-18T00:38:23.361Z,4.53
2022-08-18T00:40:53.276Z,4.65
2022-08-18T00:43:27.546Z,5.15
2022-08-18T00:45:54.366Z,4.50
2022-08-18T00:48:24.083Z,4.57
2022-08-18T00:51:02.935Z,4.95
2022-08-18T00:53:35.681Z,4.65
2022-08-18T00:56:11.507Z,4.40
2022-08-18T00:58:44.507Z,4.78
2022-08-18T01:01:16.075Z,5.20
2022-08-18T01:03:47.238Z,5.40
2022-08-18T01:06:27.192Z,5.13
2022-08-18T01:08:54.521Z,5.38
2022-08-18T01:11:21.044Z,5.03
2022-08-18T01:13:47.795Z,5.10
2022-08-18T01:16:33.097Z,5.05
2022-08-18T01:19:17.952Z,4.75
2022-08-18T01:21:51.046Z,4.90
2022-08-18T01:24:50.375Z,5.13
2022-08-18T01:27:18.535Z,5.13
2022-08-18T01:29:50.577Z,5.25
2022-08-18T01:34:51.861Z,5.53
2022-08-18T01:37:21.997Z,5.75
2022-08-18T01:41:22.005Z,6.50
2022-08-18T01:42:37.056Z,7.07
2022-08-18T01:45:10.567Z,6.45
2022-08-18T01:47:47.981Z,6.60
2022-08-18T01:50:15.846Z,5.75
2022-08-18T01:52:42.422Z,5.30
2022-08-18T01:55:09.899Z,5.60
2022-08-18T01:57:42.935Z,5.40
2022-08-18T02:00:12.441Z,5.82
2022-08-18T02:02:40.114Z,5.95
2022-08-18T02:05:17.264Z,5.93
2022-08-18T02:07:44.540Z,6.20
2022-08-18T02:10:12.540Z,5.93
2022-08-18T02:12:43.154Z,5.80
2022-08-18T02:15:11.363Z,5.78
2022-08-18T02:17:41.512Z,5.80
2022-08-18T02:20:10.691Z,5.95
2022-08-18T02:22:37.794Z,5.72
2022-08-18T02:25:06.795Z,5.80
2022-08-18T02:27:34.259Z,5.85
2022-08-18T02:30:02.640Z,6.43
2022-08-18T02:32:29.485Z,5.88
2022-08-18T02:34:59.273Z,6.30
2022-08-18T02:37:25.967Z,6.18
2022-08-18T02:39:52.588Z,6.28
2022-08-18T02:42:19.194Z,6.60
2022-08-18T02:44:45.737Z,6.40
2022-08-18T02:47:12.332Z,6.85
2022-08-18T02:49:38.983Z,6.10
2022-08-18T02:52:06.126Z,6.32
2022-08-18T02:54:33.018Z,7.00
2022-08-18T02:56:59.541Z,7.07
2022-08-18T02:59:27.891Z,6.53
2022-08-18T03:01:58.398Z,7.03
2022-08-18T03:04:29.511Z,7.35
2022-08-18T03:07:01.786Z,7.70
2022-08-18T03:09:29.712Z,7.50
2022-08-18T03:11:57.559Z,8.23
2022-08-18T03:14:27.481Z,8.48
2022-08-18T03:16:55.360Z,8.75
2022-08-18T03:19:30.299Z,8.57
2022-08-18T03:22:02.895Z,8.15
2022-08-18T03:24:32.255Z,8.68
2022-08-18T03:27:00.571Z,9.45
2022-08-18T03:29:31.934Z,9.02
2022-08-18T03:32:03.642Z,8.75
2022-08-18T03:34:30.494Z,10.20
2022-08-18T03:36:57.121Z,9.82
2022-08-18T03:39:23.878Z,11.88
2022-08-18T03:41:59.722Z,13.05
2022-08-18T03:44:34.098Z,12.77
2022-08-18T03:47:04.390Z,12.93
2022-08-18T03:49:33.641Z,12.68
2022-08-18T03:52:01.356Z,12.60
2022-08-18T03:54:29.892Z,14.25
2022-08-18T03:56:56.559Z,14.77
2022-08-18T03:59:27.245Z,14.98
2022-08-18T04:01:58.042Z,14.88
2022-08-18T04:04:27.978Z,14.65
2022-08-18T04:06:58.704Z,14.85
2022-08-18T04:09:27.938Z,14.23
2022-08-18T04:11:55.584Z,14.90
2022-08-18T04:14:24.947Z,15.75
2022-08-18T04:16:52.339Z,14.65
2022-08-18T04:19:26.903Z,16.10
2022-08-18T04:21:56.132Z,16.02
2022-08-18T04:24:22.964Z,15.68
2022-08-18T04:26:50.250Z,16.65
2022-08-18T04:29:20.403Z,14.88
2022-08-18T04:31:53.684Z,15.38
2022-08-18T04:34:24.366Z,15.93
2022-08-18T04:36:54.374Z,15.57
2022-08-18T04:39:22.483Z,15.18
2022-08-18T04:41:50.097Z,16.65
2022-08-18T04:44:18.096Z,18.83
2022-08-18T04:46:51.999Z,22.67
2022-08-18T04:49:21.507Z,20.38
2022-08-18T04:52:22.632Z,21.17
2022-08-18T04:54:55.415Z,20.23
2022-08-18T04:57:23.106Z,19.15
2022-08-18T04:59:54.011Z,17.55
2022-08-18T05:02:25.017Z,17.38
2022-08-18T05:04:51.603Z,17.65
2022-08-18T05:07:22.777Z,17.88
2022-08-18T05:09:49.890Z,17.40
2022-08-18T05:12:22.715Z,17.70
2022-08-18T05:14:53.812Z,17.25
2022-08-18T05:17:20.361Z,18.92
2022-08-18T05:19:49.845Z,19.27
2022-08-18T05:22:19.584Z,20.05
2022-08-18T05:24:54.441Z,20.85
2022-08-18T05:27:21.341Z,21.48
2022-08-18T05:29:51.560Z,22.15
2022-08-18T05:32:38.334Z,21.25
2022-08-18T05:35:10.515Z,21.70
2022-08-18T05:38:06.343Z,19.77
2022-08-18T05:40:34.841Z,19.38
2022-08-18T05:43:03.681Z,19.65
2022-08-18T05:45:30.349Z,18.88
2022-08-18T05:48:03.389Z,18.05
2022-08-18T05:50:34.564Z,17.77
2022-08-18T05:53:14.094Z,18.58
2022-08-18T05:56:12.659Z,18.40
2022-08-18T05:58:44.436Z,18.48
